createdAt,value
2019-01-06T00:01:21.933Z,31.10
2019-01-06T00:04:26.048Z,24.60
2019-01-06T00:07:20.401Z,27.37
2019-01-06T00:10:21.348Z,18.93
2019-01-06T00:13:13.042Z,25.83
2019-01-06T00:16:01.296Z,34.40
2019-01-06T00:18:56.445Z,30.10
2019-01-06T00:21:39.689Z,31.30
2019-01-06T00:24:40.637Z,31.27
2019-01-06T00:27:35.279Z,23.57
2019-01-06T00:30:26.730Z,36.70
2019-01-06T00:33:12.294Z,32.77
2019-01-06T00:36:15.832Z,32.87
2019-01-06T00:39:16.309Z,33.70
2019-01-06T00:42:04.527Z,49.10
2019-01-06T00:44:55.607Z,36.97
2019-01-06T00:47:42.741Z,35.03
2019-01-06T00:50:34.490Z,34.30
2019-01-06T00:53:32.359Z,38.20
2019-01-06T00:56:24.454Z,42.63
2019-01-06T00:59:12.126Z,41.10
2019-01-06T01:02:03.971Z,47.60
2019-01-06T01:04:51.016Z,51.50
2019-01-06T01:07:55.100Z,52.60
2019-01-06T01:10:42.662Z,46.10
2019-01-06T01:13:26.870Z,40.17
2019-01-06T01:16:27.778Z,50.97
2019-01-06T01:19:12.567Z,39.17
2019-01-06T01:22:01.312Z,38.03
2019-01-06T01:24:49.887Z,36.60
2019-01-06T01:27:44.770Z,39.80
2019-01-06T01:30:31.596Z,44.50
2019-01-06T01:33:19.367Z,57.63
2019-01-06T01:36:06.093Z,47.20
2019-01-06T01:39:03.851Z,48.03
2019-01-06T01:41:53.544Z,56.43
2019-01-06T01:45:00.526Z,52.13
2019-01-06T01:48:06.726Z,41.87
2019-01-06T01:50:47.435Z,42.10
2019-01-06T01:53:32.985Z,39.13
2019-01-06T01:56:33.922Z,46.57
2019-01-06T01:59:21.057Z,48.43
2019-01-06T02:02:08.147Z,44.53
2019-01-06T02:04:55.999Z,48.70
2019-01-06T02:07:43.292Z,53.17
2019-01-06T02:10:34.665Z,37.50
2019-01-06T02:13:41.919Z,43.63
2019-01-06T02:16:30.086Z,49.30
2019-01-06T02:19:27.548Z,47.83
2019-01-06T02:22:15.083Z,50.53
2019-01-06T02:25:02.492Z,44.50
2019-01-06T02:28:09.310Z,59.63
2019-01-06T02:30:56.840Z,47.43
2019-01-06T02:33:49.068Z,50.20
2019-01-06T02:36:37.703Z,44.83
2019-01-06T02:39:25.376Z,50.90
2019-01-06T02:42:20.400Z,37.10
2019-01-06T02:45:15.193Z,43.30
2019-01-06T02:48:18.506Z,34.67
2019-01-06T02:51:05.099Z,43.80
2019-01-06T02:53:55.956Z,40.10
2019-01-06T02:56:43.648Z,42.00
2019-01-06T02:59:37.325Z,34.40
2019-01-06T03:02:23.787Z,38.17
2019-01-06T03:05:31.307Z,37.67
2019-01-06T03:08:32.202Z,30.70
2019-01-06T03:11:19.806Z,30.23
2019-01-06T03:14:16.868Z,33.33
2019-01-06T03:17:14.424Z,23.40
2019-01-06T03:20:01.087Z,23.40
2019-01-06T03:22:48.284Z,26.53
2019-01-06T03:25:35.762Z,26.17
2019-01-06T03:28:36.627Z,31.40
2019-01-06T03:31:25.186Z,30.27
2019-01-06T03:34:20.797Z,32.30
2019-01-06T03:37:19.373Z,29.87
2019-01-06T03:40:07.165Z,38.23
2019-01-06T03:42:56.534Z,28.90
2019-01-06T03:46:00.567Z,39.60
2019-01-06T03:48:55.010Z,34.90
2019-01-06T03:51:55.290Z,33.47
2019-01-06T03:54:46.866Z,30.67
2019-01-06T03:57:34.461Z,41.90
2019-01-06T04:00:26.287Z,36.77
2019-01-06T04:03:07.173Z,40.33
2019-01-06T04:05:51.482Z,37.23
2019-01-06T04:08:52.132Z,50.37
2019-01-06T04:11:40.863Z,42.20
2019-01-06T04:14:28.300Z,46.20
2019-01-06T04:17:15.109Z,35.20
2019-01-06T04:20:10.308Z,37.00
2019-01-06T04:23:04.646Z,31.20
2019-01-06T04:26:10.369Z,40.97
2019-01-06T04:29:04.798Z,36.90
2019-01-06T04:32:02.264Z,38.80
2019-01-06T04:35:00.356Z,37.87
2019-01-06T04:37:51.574Z,37.03
2019-01-06T04:40:38.469Z,39.67
2019-01-06T04:43:30.326Z,34.93
2019-01-06T04:46:19.099Z,33.10
2019-01-06T04:49:26.033Z,37.70
2019-01-06T04:52:26.195Z,36.10
2019-01-06T04:55:13.859Z,48.00
2019-01-06T04:58:01.411Z,43.50
2019-01-06T05:00:49.242Z,45.30
2019-01-06T05:03:53.326Z,43.20
2019-01-06T05:06:41.509Z,43.30
2019-01-06T05:09:28.845Z,35.07
2019-01-06T05:12:15.950Z,47.03
2019-01-06T05:15:16.735Z,73.20
2019-01-06T05:18:04.037Z,58.53
2019-01-06T05:20:51.475Z,120.53
2019-01-06T05:23:39.046Z,87.90
2019-01-06T05:26:30.816Z,67.13
2019-01-06T05:29:21.950Z,60.00
2019-01-06T05:32:13.304Z,113.87
2019-01-06T05:35:06.082Z,72.90
2019-01-06T05:38:03.437Z,81.00
2019-01-06T05:40:54.563Z,75.33
2019-01-06T05:43:42.452Z,97.03
2019-01-06T05:46:33.478Z,75.27
2019-01-06T05:49:20.258Z,98.47
2019-01-06T05:52:21.061Z,58.33
2019-01-06T05:55:03.295Z,75.00
2019-01-06T05:57:53.352Z,72.93
2019-01-06T06:00:36.334Z,47.17
2019-01-06T06:03:13.893Z,57.50
2019-01-06T06:06:03.399Z,48.73
2019-01-06T06:09:00.764Z,71.10
2019-01-06T06:11:48.023Z,52.20
2019-01-06T06:14:35.218Z,69.70
2019-01-06T06:17:22.549Z,52.83
2019-01-06T06:20:14.258Z,49.67
2019-01-06T06:23:04.428Z,40.87
2019-01-06T06:26:02.551Z,58.00
2019-01-06T06:28:49.284Z,49.20
2019-01-06T06:31:37.822Z,42.33
2019-01-06T06:34:38.526Z,41.47
2019-01-06T06:37:27.133Z,42.57
2019-01-06T06:40:14.362Z,42.03
2019-01-06T06:43:18.256Z,53.03
2019-01-06T06:46:04.973Z,47.07
2019-01-06T06:48:52.532Z,48.77
2019-01-06T06:51:40.054Z,42.60
2019-01-06T06:54:44.752Z,47.00
2019-01-06T06:58:15.270Z,55.30
2019-01-06T07:04:25.257Z,61.77
2019-01-06T07:07:13.453Z,68.43
2019-01-06T07:10:02.851Z,75.67
2019-01-06T07:12:56.921Z,55.33
2019-01-06T07:15:51.516Z,77.13
2019-01-06T07:18:47.299Z,66.13
2019-01-06T07:21:44.871Z,74.97
2019-01-06T07:24:42.570Z,58.53
2019-01-06T07:27:43.247Z,52.03
2019-01-06T07:30:34.775Z,51.20
2019-01-06T07:33:11.180Z,48.40
2019-01-06T07:36:05.460Z,40.70
2019-01-06T07:38:57.125Z,59.00
2019-01-06T07:41:55.103Z,64.97
2019-01-06T07:44:55.817Z,50.10
2019-01-06T07:47:44.182Z,45.40
2019-01-06T07:50:32.820Z,47.70
2019-01-06T07:53:20.393Z,39.07
2019-01-06T07:56:07.434Z,26.80
2019-01-06T07:58:50.188Z,27.23
2019-01-06T08:01:44.425Z,30.17
2019-01-06T08:04:41.858Z,29.83
2019-01-06T08:07:26.895Z,24.90
2019-01-06T08:10:13.221Z,23.53
2019-01-06T08:12:58.713Z,24.23
2019-01-06T08:16:05.428Z,23.03
2019-01-06T08:19:09.122Z,18.27
2019-01-06T08:22:03.125Z,22.47
2019-01-06T08:24:50.755Z,20.13
2019-01-06T08:27:48.414Z,28.00
2019-01-06T08:30:49.903Z,33.47
2019-01-06T08:33:44.456Z,28.00
2019-01-06T08:36:31.902Z,19.53
2019-01-06T08:39:14.304Z,23.03
2019-01-06T08:41:59.697Z,24.77
2019-01-06T08:44:45.237Z,23.30
2019-01-06T08:47:34.267Z,17.60
2019-01-06T08:50:21.190Z,15.70
2019-01-06T08:53:09.321Z,22.87
2019-01-06T08:55:57.814Z,19.00
2019-01-06T08:59:01.473Z,30.10
2019-01-06T09:01:48.511Z,21.07
2019-01-06T09:04:37.113Z,23.93
2019-01-06T09:07:32.282Z,21.70
2019-01-06T09:10:27.411Z,20.00
2019-01-06T09:13:09.556Z,14.23
2019-01-06T09:15:56.675Z,14.37
2019-01-06T09:18:44.326Z,24.03
2019-01-06T09:21:31.984Z,19.73
2019-01-06T09:24:19.084Z,18.77
2019-01-06T09:27:08.669Z,24.40
2019-01-06T09:29:55.867Z,21.17
2019-01-06T09:32:51.413Z,22.07
2019-01-06T09:35:38.997Z,22.07
2019-01-06T09:38:28.099Z,25.80
2019-01-06T09:41:15.650Z,21.30
2019-01-06T09:43:57.888Z,22.00
2019-01-06T09:46:47.065Z,24.63
2019-01-06T09:49:38.207Z,22.57
2019-01-06T09:52:25.770Z,21.17
2019-01-06T09:55:13.229Z,24.63
2019-01-06T09:58:00.756Z,24.17
2019-01-06T10:01:04.961Z,28.27
2019-01-06T10:03:56.384Z,25.53
2019-01-06T10:06:45.096Z,27.27
2019-01-06T10:09:34.127Z,26.90
2019-01-06T10:12:31.396Z,20.30
2019-01-06T10:15:19.919Z,26.83
2019-01-06T10:18:23.234Z,24.43
2019-01-06T10:21:10.500Z,22.17
2019-01-06T10:23:58.499Z,17.67
2019-01-06T10:27:02.209Z,22.50
2019-01-06T10:29:51.383Z,18.67
2019-01-06T10:32:38.667Z,14.53
2019-01-06T10:35:36.818Z,15.77
2019-01-06T10:38:37.254Z,13.57
2019-01-06T10:41:35.128Z,10.33
2019-01-06T10:44:33.257Z,11.57
2019-01-06T10:47:25.212Z,14.33
2019-01-06T10:50:22.787Z,12.30
2019-01-06T10:53:25.230Z,13.63
2019-01-06T10:56:21.803Z,11.77
2019-01-06T10:59:17.324Z,10.60
2019-01-06T11:02:08.960Z,11.43
2019-01-06T11:04:59.598Z,12.50
2019-01-06T11:08:02.853Z,12.53
2019-01-06T11:10:54.047Z,7.67
2019-01-06T11:13:42.230Z,9.87
2019-01-06T11:16:45.821Z,7.73
2019-01-06T11:19:33.262Z,7.63
2019-01-06T11:22:34.991Z,5.20
2019-01-06T11:25:22.598Z,7.47
2019-01-06T11:28:29.182Z,4.10
2019-01-06T11:31:24.034Z,4.47
2019-01-06T11:34:12.382Z,4.17
2019-01-06T11:37:07.544Z,4.20
2019-01-06T11:39:55.721Z,3.33
2019-01-06T11:42:43.040Z,5.13
2019-01-06T11:45:36.292Z,2.93
2019-01-06T11:48:24.602Z,4.43
2019-01-06T11:51:26.167Z,2.80
2019-01-06T11:54:13.454Z,2.37
2019-01-06T11:57:01.206Z,1.83
2019-01-06T11:59:48.324Z,2.20
2019-01-06T12:02:40.024Z,3.07
2019-01-06T12:05:34.540Z,2.00
2019-01-06T12:08:21.966Z,2.07
2019-01-06T12:11:07.779Z,4.50
2019-01-06T12:13:55.576Z,2.27
2019-01-06T12:16:37.518Z,2.70
2019-01-06T12:19:33.506Z,2.67
2019-01-06T12:22:16.599Z,2.90
2019-01-06T12:25:20.216Z,3.60
2019-01-06T12:28:14.708Z,2.87
2019-01-06T12:31:12.193Z,2.93
2019-01-06T12:34:00.634Z,2.60
2019-01-06T12:36:48.163Z,1.90
2019-01-06T12:39:35.479Z,3.97
2019-01-06T12:42:24.036Z,3.70
2019-01-06T12:45:20.838Z,4.63
2019-01-06T12:48:08.929Z,3.13
2019-01-06T12:50:57.375Z,1.90
2019-01-06T12:53:48.840Z,2.30
2019-01-06T12:56:36.227Z,1.57
2019-01-06T12:59:24.158Z,1.00
2019-01-06T13:02:13.430Z,1.70
2019-01-06T13:05:00.525Z,3.30
2019-01-06T13:07:52.164Z,2.77
2019-01-06T13:10:44.033Z,2.20
2019-01-06T13:13:45.076Z,2.33
2019-01-06T13:16:35.191Z,1.70
2019-01-06T13:19:24.303Z,1.53
2019-01-06T13:22:21.884Z,1.20
2019-01-06T13:25:13.010Z,2.13
2019-01-06T13:28:07.809Z,1.70
2019-01-06T13:31:02.816Z,2.60
2019-01-06T13:33:51.644Z,2.63
2019-01-06T13:36:43.867Z,1.47
2019-01-06T13:39:34.994Z,1.30
2019-01-06T13:42:16.416Z,1.63
2019-01-06T13:45:06.277Z,2.63
2019-01-06T13:47:53.877Z,2.90
2019-01-06T13:50:41.623Z,1.73
2019-01-06T13:53:45.840Z,2.60
2019-01-06T13:56:36.787Z,2.27
2019-01-06T13:59:44.464Z,2.47
2019-01-06T14:02:32.538Z,1.73
2019-01-06T14:05:37.412Z,1.80
2019-01-06T14:08:24.607Z,3.40
2019-01-06T14:11:12.049Z,1.80
2019-01-06T14:14:06.203Z,2.50
2019-01-06T14:16:53.562Z,2.13
2019-01-06T14:19:54.085Z,2.13
2019-01-06T14:22:53.760Z,1.60
2019-01-06T14:25:57.979Z,1.67
2019-01-06T14:28:47.179Z,1.90
2019-01-06T14:31:34.861Z,1.80
2019-01-06T14:34:22.310Z,2.00
2019-01-06T14:37:08.548Z,3.07
2019-01-06T14:40:03.741Z,2.70
2019-01-06T14:43:11.056Z,4.43
2019-01-06T14:46:06.151Z,3.17
2019-01-06T14:49:00.840Z,3.17
2019-01-06T14:52:00.195Z,2.57
2019-01-06T14:54:54.826Z,2.50
2019-01-06T14:57:46.724Z,2.97
2019-01-06T15:00:35.510Z,3.33
2019-01-06T15:03:24.451Z,3.20
2019-01-06T15:06:18.902Z,4.10
2019-01-06T15:09:07.546Z,3.13
2019-01-06T15:12:14.480Z,3.43
2019-01-06T15:17:55.326Z,2.30
2019-01-06T15:20:43.642Z,2.40
2019-01-06T15:23:26.464Z,2.37
2019-01-06T15:26:18.613Z,3.00
2019-01-06T15:29:12.689Z,2.90
2019-01-06T15:32:06.777Z,2.37
2019-01-06T15:34:54.260Z,2.00
2019-01-06T15:37:48.594Z,1.83
2019-01-06T15:40:35.896Z,2.10
2019-01-06T15:43:36.783Z,2.20
2019-01-06T15:46:24.526Z,2.47
2019-01-06T15:49:25.475Z,2.53
2019-01-06T15:52:20.174Z,2.87
2019-01-06T15:55:08.396Z,3.53
2019-01-06T15:57:56.272Z,2.60
2019-01-06T16:00:44.988Z,4.70
2019-01-06T16:03:31.911Z,3.23
2019-01-06T16:06:38.344Z,2.17
2019-01-06T16:09:45.847Z,3.23
2019-01-06T16:12:33.024Z,8.67
2019-01-06T16:15:19.935Z,4.70
2019-01-06T16:18:08.891Z,3.47
2019-01-06T16:21:00.464Z,3.77
2019-01-06T16:24:03.686Z,3.47
2019-01-06T16:26:55.155Z,3.20
2019-01-06T16:30:00.399Z,3.87
2019-01-06T16:32:49.095Z,8.83
2019-01-06T16:35:36.877Z,8.80
2019-01-06T16:38:24.299Z,7.33
2019-01-06T16:41:15.978Z,6.40
2019-01-06T16:44:11.692Z,5.37
2019-01-06T16:46:59.470Z,6.53
2019-01-06T16:49:56.966Z,2.63
2019-01-06T16:53:01.229Z,4.27
2019-01-06T16:55:59.403Z,3.30
2019-01-06T16:58:46.735Z,4.43
2019-01-06T17:01:34.545Z,8.00
2019-01-06T17:04:41.116Z,14.43
2019-01-06T17:07:28.904Z,5.70
2019-01-06T17:10:17.713Z,5.93
2019-01-06T17:13:04.956Z,11.03
2019-01-06T17:15:52.156Z,10.20
2019-01-06T17:18:42.588Z,10.07
2019-01-06T17:21:29.777Z,13.13
2019-01-06T17:24:17.094Z,10.50
2019-01-06T17:27:01.607Z,7.30
2019-01-06T17:29:50.402Z,10.37
2019-01-06T17:32:40.154Z,10.37
2019-01-06T17:35:29.837Z,8.87
2019-01-06T17:38:18.529Z,7.93
2019-01-06T17:41:06.059Z,7.60
2019-01-06T17:43:59.758Z,12.47
2019-01-06T17:46:57.101Z,10.37
2019-01-06T17:49:44.918Z,7.70
2019-01-06T17:52:33.464Z,12.10
2019-01-06T17:55:22.107Z,7.33
2019-01-06T17:58:09.026Z,8.80
2019-01-06T18:01:03.311Z,12.70
2019-01-06T18:03:58.446Z,10.20
2019-01-06T18:06:45.753Z,13.63
2019-01-06T18:09:32.870Z,10.10
2019-01-06T18:12:19.962Z,12.90
2019-01-06T18:15:17.079Z,8.47
2019-01-06T18:18:04.802Z,13.33
2019-01-06T18:21:02.891Z,13.47
2019-01-06T18:23:50.031Z,12.33
2019-01-06T18:26:41.651Z,14.00
2019-01-06T18:29:28.528Z,16.77
2019-01-06T18:32:19.450Z,12.90
2019-01-06T18:35:12.188Z,19.70
2019-01-06T18:37:58.412Z,13.27
2019-01-06T18:40:45.482Z,15.60
2019-01-06T18:43:32.531Z,18.60
2019-01-06T18:46:36.335Z,15.57
2019-01-06T18:49:23.796Z,20.03
2019-01-06T18:52:24.462Z,11.00
2019-01-06T18:55:19.380Z,13.20
2019-01-06T18:58:23.079Z,14.83
2019-01-06T19:01:10.116Z,14.57
2019-01-06T19:04:10.503Z,18.37
2019-01-06T19:06:53.594Z,15.20
2019-01-06T19:09:44.965Z,14.47
2019-01-06T19:12:37.869Z,13.30
2019-01-06T19:15:24.985Z,12.97
2019-01-06T19:18:13.888Z,15.03
2019-01-06T19:21:01.282Z,11.20
2019-01-06T19:23:49.079Z,13.53
2019-01-06T19:26:41.870Z,13.43
2019-01-06T19:29:44.676Z,12.43
2019-01-06T19:32:37.248Z,10.00
2019-01-06T19:35:26.119Z,10.57
2019-01-06T19:38:17.592Z,11.20
2019-01-06T19:41:24.693Z,11.73
2019-01-06T19:44:25.649Z,11.47
2019-01-06T19:47:32.369Z,13.13
2019-01-06T19:50:19.883Z,8.43
2019-01-06T19:53:11.303Z,16.10
2019-01-06T19:56:09.508Z,8.23
2019-01-06T19:59:07.097Z,8.60
2019-01-06T20:01:47.585Z,11.77
2019-01-06T20:04:54.739Z,14.87
2019-01-06T20:07:52.356Z,10.57
2019-01-06T20:10:53.732Z,12.20
2019-01-06T20:13:35.392Z,6.50
2019-01-06T20:16:42.522Z,9.63
2019-01-06T20:19:33.949Z,11.50
2019-01-06T20:22:28.152Z,9.93
2019-01-06T20:25:15.714Z,7.47
2019-01-06T20:28:03.520Z,12.30
2019-01-06T20:31:04.120Z,11.80
2019-01-06T20:33:56.997Z,11.37
2019-01-06T20:36:57.341Z,10.90
2019-01-06T20:39:53.849Z,8.37
2019-01-06T20:42:38.422Z,11.10
2019-01-06T20:45:29.568Z,10.77
2019-01-06T20:48:17.317Z,13.07
2019-01-06T20:51:24.614Z,7.67
2019-01-06T20:54:12.500Z,13.73
2019-01-06T20:57:00.056Z,10.70
2019-01-06T20:59:46.250Z,13.50
2019-01-06T21:02:41.077Z,15.87
2019-01-06T21:05:38.955Z,10.30
2019-01-06T21:08:29.832Z,9.67
2019-01-06T21:11:16.750Z,11.40
2019-01-06T21:14:03.740Z,13.00
2019-01-06T21:16:52.031Z,17.17
2019-01-06T21:19:39.605Z,11.13
2019-01-06T21:22:34.284Z,11.63
2019-01-06T21:25:40.572Z,12.43
2019-01-06T21:28:28.854Z,17.27
2019-01-06T21:31:26.161Z,17.93
2019-01-06T21:34:14.458Z,12.03
2019-01-06T21:37:01.834Z,18.03
2019-01-06T21:39:43.704Z,12.40
2019-01-06T21:42:30.775Z,17.73
2019-01-06T21:45:25.583Z,12.60
2019-01-06T21:48:20.200Z,11.60
2019-01-06T21:51:08.040Z,11.13
2019-01-06T21:54:03.601Z,11.43
2019-01-06T21:56:57.960Z,12.80
2019-01-06T21:59:45.508Z,9.67
2019-01-06T22:02:40.223Z,9.97
2019-01-06T22:05:27.410Z,16.57
2019-01-06T22:08:31.490Z,11.57
2019-01-06T22:11:19.752Z,11.53
2019-01-06T22:14:07.323Z,6.80
2019-01-06T22:16:50.428Z,13.87
2019-01-06T22:19:51.386Z,7.03
2019-01-06T22:22:51.946Z,10.73
2019-01-06T22:25:38.968Z,16.67
2019-01-06T22:28:36.614Z,9.70
2019-01-06T22:31:25.319Z,9.43
2019-01-06T22:34:13.468Z,17.70
2019-01-06T22:37:00.378Z,5.93
2019-01-06T22:39:58.324Z,10.80
2019-01-06T22:42:45.653Z,14.50
2019-01-06T22:45:37.200Z,9.17
2019-01-06T22:48:24.411Z,14.50
2019-01-06T22:51:15.610Z,18.77
2019-01-06T22:54:13.352Z,18.53
2019-01-06T22:57:00.767Z,13.30
2019-01-06T23:00:07.627Z,14.87
2019-01-06T23:03:04.678Z,12.40
2019-01-06T23:06:05.519Z,10.03
2019-01-06T23:08:44.588Z,10.33
2019-01-06T23:11:44.965Z,11.60
2019-01-06T23:14:32.686Z,14.67
2019-01-06T23:17:39.478Z,10.63
2019-01-06T23:20:28.889Z,10.07
2019-01-06T23:23:16.240Z,12.73
2019-01-06T23:26:04.846Z,11.63
2019-01-06T23:29:09.066Z,9.90
2019-01-06T23:31:57.267Z,16.20
2019-01-06T23:34:57.852Z,8.73
2019-01-06T23:37:56.893Z,9.10
2019-01-06T23:40:47.595Z,12.60
2019-01-06T23:43:40.790Z,13.77
2019-01-06T23:46:32.167Z,12.03
2019-01-06T23:49:34.059Z,15.57
2019-01-06T23:52:34.384Z,14.40
2019-01-06T23:55:21.426Z,11.37
2019-01-06T23:58:08.623Z,12.50
